Time;durP1;ratioP1;P1;durP2;ratioP2;P2;SDS_P1;SDS_P2;PMS_P1;PMS_P2;Temp;Humidity;BMP_temperature;BMP_pressure;BME280_temperature;BME280_humidity;BME280_pressure;Samples;Min_cycle;Max_cycle;Signal;HPM_P1;HPM_P2
2021/12/25 00:00:00;;;;;;;;;;;;;;;12.84;83.39;99119.53;5033208;28;19921;-52
2021/12/25 00:02:28;;;;;;;;;;;;;;;12.83;82.93;99106.69;5032383;28;20020;-53
2021/12/25 00:04:55;;;;;;;;;;;;;;;12.83;83.08;99105.84;5031377;28;19944;-53
2021/12/25 00:07:21;;;;;;;;;;;;;;;12.83;83.15;99101.06;5032250;28;19978;-53
2021/12/25 00:09:48;;;;;;;;;;;;;;;12.85;82.98;99098.75;5051071;28;19921;-52
2021/12/25 00:12:15;;;;;;;;;;;;;;;12.88;82.63;99097.25;5044807;28;19928;-52
2021/12/25 00:14:41;;;;;;;;;;;;;;;12.90;82.73;99121.00;5032010;28;19927;-52
2021/12/25 00:17:08;;;;;;;;;;;;;;;12.91;82.61;99083.41;5032691;28;19927;-51
2021/12/25 00:19:35;;;;;;;;;;;;;;;12.93;82.57;99099.91;5032042;28;19967;-53
2021/12/25 00:22:02;;;;;;;;;;;;;;;12.95;82.44;99098.41;5032469;28;20020;-52
2021/12/25 00:24:28;;;;;;;;;;;;;;;12.97;82.46;99084.06;5038945;28;19928;-50
2021/12/25 00:27:05;;;;;;;;;;;;;;;12.98;82.47;99074.50;5051673;28;19956;-52
2021/12/25 00:32:28;;;;;;;;;;;;;;;12.99;82.42;99064.94;5032216;28;20016;-50
2021/12/25 00:34:55;;;;;;;;;;;;;;;12.99;82.31;99048.97;5032320;28;19970;-52
2021/12/25 00:37:21;;;;;;;;;;;;;;;13.00;81.94;99066.59;5032389;28;20280;-52
2021/12/25 00:39:48;;;;;;;;;;;;;;;13.02;82.03;99047.47;5031990;28;20011;-53
2021/12/25 00:42:16;;;;;;;;;;;;;;;13.01;81.70;99045.81;5031953;28;20015;-52
2021/12/25 00:44:43;;;;;;;;;;;;;;;13.00;82.15;99053.41;5031910;28;20008;-52
2021/12/25 00:47:10;;;;;;;;;;;;;;;13.00;82.14;99050.59;5031686;28;20028;-51
2021/12/25 00:49:36;;;;;;;;;;;;;;;13.01;82.23;99049.44;5031142;28;20011;-50
2021/12/25 00:52:03;;;;;;;;;;;;;;;13.01;82.00;99034.63;5032414;28;19960;-52
2021/12/25 00:54:30;;;;;;;;;;;;;;;13.00;82.10;99039.41;5032065;28;19973;-50
2021/12/25 00:56:58;;;;;;;;;;;;;;;13.02;82.08;99023.09;5032302;28;20336;-49
2021/12/25 00:59:25;;;;;;;;;;;;;;;13.04;81.77;99017.13;5032196;28;19921;-54
2021/12/25 01:01:51;;;;;;;;;;;;;;;13.04;81.74;99023.56;5031751;28;19979;-52
2021/12/25 01:04:19;;;;;;;;;;;;;;;13.07;82.02;99026.84;5031625;28;19921;-56
2021/12/25 01:06:46;;;;;;;;;;;;;;;13.07;81.76;99026.84;5031757;28;20020;-51
2021/12/25 01:09:13;;;;;;;;;;;;;;;13.09;82.24;99030.13;5043605;28;20007;-51
2021/12/25 01:11:42;;;;;;;;;;;;;;;13.09;82.09;99042.16;5031702;28;19957;-54
2021/12/25 01:14:20;;;;;;;;;;;;;;;13.08;81.81;99022.88;5031523;28;19968;-52
2021/12/25 01:30:13;;;;;;;;;;;;;;;13.02;81.83;99006.28;5045001;28;19921;-54
2021/12/25 01:49:03;;;;;;;;;;;;;;;11.92;87.24;99021.66;5034884;28;19962;-50
2021/12/25 01:51:31;;;;;;;;;;;;;;;11.89;87.50;99007.50;5034414;28;20019;-54
2021/12/25 01:53:57;;;;;;;;;;;;;;;11.84;87.68;99009.31;5034148;28;20361;-51
2021/12/25 01:56:24;;;;;;;;;;;;;;;11.85;87.79;98996.97;5034549;28;20003;-49
2021/12/25 01:58:51;;;;;;;;;;;;;;;11.87;88.03;98991.06;5034878;28;20508;-52
2021/12/25 02:01:18;;;;;;;;;;;;;;;11.85;88.19;98983.00;5034646;28;20839;-51
2021/12/25 02:03:45;;;;;;;;;;;;;;;11.85;88.40;98979.38;5034263;28;19928;-54
2021/12/25 02:06:12;;;;;;;;;;;;;;;11.85;88.48;98977.41;5034462;28;20335;-52
2021/12/25 02:08:40;;;;;;;;;;;;;;;11.88;88.60;98981.53;5041381;28;20024;-53
2021/12/25 02:11:07;;;;;;;;;;;;;;;11.88;88.53;98980.69;5034229;28;19920;-51
2021/12/25 02:13:36;;;;;;;;;;;;;;;11.87;88.64;98988.28;5045496;28;19925;-51
2021/12/25 02:16:07;;;;;;;;;;;;;;;11.88;88.83;98980.69;5053192;28;20024;-52
2021/12/25 02:21:26;;;;;;;;;;;;;;;11.89;88.97;98980.34;5040348;28;19972;-55
2021/12/25 02:23:53;;;;;;;;;;;;;;;11.88;88.93;98970.31;5034017;28;19975;-51
2021/12/25 02:26:21;;;;;;;;;;;;;;;11.85;89.05;98970.97;5043822;28;20021;-53
2021/12/25 02:28:48;;;;;;;;;;;;;;;11.88;89.03;98975.94;5053281;28;19956;-54
2021/12/25 02:31:16;;;;;;;;;;;;;;;11.86;89.10;98961.44;5053818;28;20023;-55
2021/12/25 02:33:43;;;;;;;;;;;;;;;11.88;89.31;98972.31;5051425;28;19925;-54
2021/12/25 02:36:11;;;;;;;;;;;;;;;11.85;89.34;98969.00;5052047;28;20004;-55
2021/12/25 02:38:38;;;;;;;;;;;;;;;11.84;89.35;98955.34;5051904;28;20008;-55
2021/12/25 02:41:05;;;;;;;;;;;;;;;11.84;89.44;98955.34;5053682;28;20015;-54
2021/12/25 02:43:32;;;;;;;;;;;;;;;11.84;89.43;98958.97;5041151;28;19968;-52
2021/12/25 02:46:03;;;;;;;;;;;;;;;11.83;89.57;98959.28;5033997;28;19968;-55
2021/12/25 02:48:31;;;;;;;;;;;;;;;11.84;89.44;98955.34;5033888;28;19975;-55
2021/12/25 02:50:58;;;;;;;;;;;;;;;11.82;89.69;98955.63;5034203;28;20074;-56
2021/12/25 02:53:27;;;;;;;;;;;;;;;11.83;89.71;98968.50;5033369;28;20033;-56
2021/12/25 02:55:54;;;;;;;;;;;;;;;11.83;89.65;98943.31;5033396;28;19921;-56
2021/12/25 02:58:20;;;;;;;;;;;;;;;11.83;89.81;98956.50;5033221;28;20027;-55
2021/12/25 03:00:53;;;;;;;;;;;;;;;11.84;89.82;98963.75;5033224;28;20412;-55
2021/12/25 03:03:21;;;;;;;;;;;;;;;11.83;89.88;98950.91;5051116;28;19921;-56
2021/12/25 03:05:48;;;;;;;;;;;;;;;11.84;89.87;98958.97;5051589;28;19972;-55
2021/12/25 03:08:15;;;;;;;;;;;;;;;11.84;89.94;98953.38;5038562;28;20010;-54
2021/12/25 03:10:42;;;;;;;;;;;;;;;11.85;90.02;98954.19;5033041;28;19943;-56
2021/12/25 03:15:46;;;;;;;;;;;;;;;11.86;90.08;98939.06;5032787;28;20012;-54
2021/12/25 03:18:15;;;;;;;;;;;;;;;11.88;90.11;98939.56;5032794;28;19925;-55
2021/12/25 03:20:46;;;;;;;;;;;;;;;11.89;90.10;98938.41;5032966;28;20008;-55
2021/12/25 03:23:17;;;;;;;;;;;;;;;11.91;90.01;98935.28;5032499;28;20007;-53
2021/12/25 03:25:45;;;;;;;;;;;;;;;11.91;90.00;98936.09;5032969;28;19944;-54
2021/12/25 03:28:13;;;;;;;;;;;;;;;11.90;90.01;98934.47;5032649;28;20294;-53
2021/12/25 03:30:39;;;;;;;;;;;;;;;11.91;90.17;98940.88;5032508;28;19921;-54
2021/12/25 03:33:07;;;;;;;;;;;;;;;11.91;90.06;98936.09;5032537;28;19921;-53
2021/12/25 03:35:34;;;;;;;;;;;;;;;11.92;90.12;98934.13;5052348;28;19979;-55
2021/12/25 03:38:02;;;;;;;;;;;;;;;11.90;89.97;98934.47;5040887;28;19993;-54
2021/12/25 03:40:29;;;;;;;;;;;;;;;11.90;90.10;98934.47;5042533;28;19968;-54
2021/12/25 03:42:56;;;;;;;;;;;;;;;11.89;90.13;98927.22;5048308;28;20336;-54
2021/12/25 03:45:23;;;;;;;;;;;;;;;11.89;90.11;98932.81;5048157;28;20012;-55
2021/12/25 03:48:02;;;;;;;;;;;;;;;11.90;90.20;98928.03;5032600;28;19928;-54
2021/12/25 03:58:44;;;;;;;;;;;;;;;11.81;90.02;98926.03;5033025;28;20031;-54
2021/12/25 04:01:32;;;;;;;;;;;;;;;11.79;90.12;98907.94;5032290;28;20016;-52
2021/12/25 04:06:32;;;;;;;;;;;;;;;11.78;90.34;98901.50;5031852;28;19972;-54
2021/12/25 04:09:00;;;;;;;;;;;;;;;11.76;90.29;98895.44;5032119;28;20087;-54
2021/12/25 04:11:30;;;;;;;;;;;;;;;11.74;90.16;98891.31;5032034;28;20024;-53
2021/12/25 04:13:57;;;;;;;;;;;;;;;11.66;90.29;98894.94;5031985;28;20008;-54
2021/12/25 04:16:24;;;;;;;;;;;;;;;11.60;90.35;98886.72;5032576;28;20023;-53
2021/12/25 04:18:51;;;;;;;;;;;;;;;11.57;90.52;98886.56;5032349;28;19927;-54
2021/12/25 04:21:17;;;;;;;;;;;;;;;11.53;90.37;98880.78;5032072;28;19921;-55
2021/12/25 04:23:45;;;;;;;;;;;;;;;11.49;90.60;98877.00;5032391;28;20016;-54
2021/12/25 04:26:13;;;;;;;;;;;;;;;11.46;90.38;98872.06;5031738;28;19921;-54
2021/12/25 04:28:59;;;;;;;;;;;;;;;11.40;90.61;98876.19;5031745;28;20404;-55
2021/12/25 04:32:02;;;;;;;;;;;;;;;11.35;90.64;98877.16;5031931;28;20007;-53
2021/12/25 05:01:47;;;;;;;;;;;;;;;11.22;90.78;98868.94;5035405;28;19964;-55
2021/12/25 05:04:21;;;;;;;;;;;;;;;11.22;90.67;98871.72;5035186;28;20356;-55
2021/12/25 05:06:48;;;;;;;;;;;;;;;11.23;90.72;98859.38;5035991;28;19991;-55
2021/12/25 05:09:16;;;;;;;;;;;;;;;11.24;90.57;98855.44;5043563;28;19940;-56
2021/12/25 05:11:42;;;;;;;;;;;;;;;11.25;90.66;98851.50;5055056;28;19934;-55
2021/12/25 05:14:09;;;;;;;;;;;;;;;11.23;90.70;98849.03;5053341;28;20321;-54
2021/12/25 05:16:36;;;;;;;;;;;;;;;11.24;90.65;98838.66;5055015;28;20016;-55
2021/12/25 05:19:03;;;;;;;;;;;;;;;11.24;90.65;98847.06;5055040;28;20050;-54
2021/12/25 05:21:29;;;;;;;;;;;;;;;11.25;90.76;98840.34;5043309;28;20004;-53
2021/12/25 05:23:58;;;;;;;;;;;;;;;11.26;90.74;98836.38;5035742;28;19921;-54
2021/12/25 05:26:24;;;;;;;;;;;;;;;11.28;90.74;98839.66;5034904;28;20095;-55
2021/12/25 05:28:59;;;;;;;;;;;;;;;11.30;90.63;98832.59;5034900;28;19944;-55
2021/12/25 05:31:27;;;;;;;;;;;;;;;11.29;90.67;98830.97;5034954;28;19980;-54
2021/12/25 05:33:54;;;;;;;;;;;;;;;11.31;90.61;98825.84;5033329;28;19925;-55
2021/12/25 05:36:21;;;;;;;;;;;;;;;11.33;90.61;98819.94;5035065;28;20011;-55
2021/12/25 05:38:48;;;;;;;;;;;;;;;11.34;90.55;98816.81;5035302;28;19968;-53
2021/12/25 05:41:15;;;;;;;;;;;;;;;11.33;90.44;98814.34;5034960;28;20007;-54
2021/12/25 05:43:42;;;;;;;;;;;;;;;11.32;90.33;98816.34;5034572;28;20006;-55
2021/12/25 05:46:08;;;;;;;;;;;;;;;11.32;90.22;98810.75;5034524;28;20015;-55
2021/12/25 05:48:35;;;;;;;;;;;;;;;11.32;90.28;98807.94;5034776;28;19925;-54
2021/12/25 05:51:03;;;;;;;;;;;;;;;11.31;90.00;98811.88;5045183;28;19925;-54
2021/12/25 05:53:31;;;;;;;;;;;;;;;11.34;90.24;98810.41;5054111;28;20015;-54
2021/12/25 05:55:58;;;;;;;;;;;;;;;11.35;89.97;98803.66;5045316;28;20437;-54
2021/12/25 05:58:25;;;;;;;;;;;;;;;11.33;89.95;98800.38;5034643;28;19932;-54
2021/12/25 06:00:51;;;;;;;;;;;;;;;11.34;90.00;98788.03;5034294;28;20433;-55
2021/12/25 06:03:18;;;;;;;;;;;;;;;11.31;90.02;98778.34;5032997;28;20023;-55
2021/12/25 06:05:47;;;;;;;;;;;;;;;11.29;90.16;98772.28;5034198;28;20360;-56
2021/12/25 06:08:15;;;;;;;;;;;;;;;11.28;90.11;98778.19;5034103;28;19941;-56
2021/12/25 06:10:43;;;;;;;;;;;;;;;11.29;89.91;98782.63;5034478;28;20011;-56
2021/12/25 06:13:15;;;;;;;;;;;;;;;11.29;89.98;98782.63;5033640;28;20079;-55
2021/12/25 06:15:43;;;;;;;;;;;;;;;11.27;89.52;98782.13;5034321;28;19999;-55
2021/12/25 06:18:10;;;;;;;;;;;;;;;11.25;89.59;98790.03;5033535;28;20408;-55
2021/12/25 06:20:37;;;;;;;;;;;;;;;11.22;89.59;98791.50;5033893;28;20012;-53
2021/12/25 06:23:05;;;;;;;;;;;;;;;11.20;89.44;98792.97;5034047;28;20268;-53
2021/12/25 06:25:33;;;;;;;;;;;;;;;11.20;89.47;98791.00;5033455;28;20011;-55
2021/12/25 06:27:59;;;;;;;;;;;;;;;11.19;89.25;98794.94;5033729;28;20441;-55
2021/12/25 06:30:26;;;;;;;;;;;;;;;11.22;89.39;98807.44;5033865;28;20398;-54
2021/12/25 06:32:53;;;;;;;;;;;;;;;11.24;89.15;98810.72;5046638;28;19956;-56
2021/12/25 06:35:20;;;;;;;;;;;;;;;11.27;89.32;98815.66;5033526;28;20395;-56
2021/12/25 06:37:47;;;;;;;;;;;;;;;11.28;88.89;98811.72;5033584;28;19935;-56
2021/12/25 06:40:17;;;;;;;;;;;;;;;11.30;88.71;98823.41;5033490;28;20009;-56
2021/12/25 06:42:45;;;;;;;;;;;;;;;11.31;88.79;98817.47;5033724;28;19967;-55
2021/12/25 06:45:12;;;;;;;;;;;;;;;11.32;88.74;98813.53;5046605;28;19967;-55
2021/12/25 06:47:39;;;;;;;;;;;;;;;11.34;88.75;98819.59;5052292;28;19928;-55
2021/12/25 06:50:09;;;;;;;;;;;;;;;11.35;88.77;98817.63;5053582;28;20341;-57
2021/12/25 06:52:36;;;;;;;;;;;;;;;11.37;88.62;98816.16;5053077;28;20004;-56
2021/12/25 06:55:04;;;;;;;;;;;;;;;11.38;88.57;98826.22;5038783;28;19999;-55
2021/12/25 06:57:31;;;;;;;;;;;;;;;11.40;88.48;98820.28;5053340;28;20362;-57
2021/12/25 06:59:59;;;;;;;;;;;;;;;11.40;88.67;98825.88;5053234;28;19966;-54
2021/12/25 07:02:26;;;;;;;;;;;;;;;11.39;88.37;98818.63;5033382;28;19968;-55
2021/12/25 07:04:53;;;;;;;;;;;;;;;11.37;88.12;98826.53;5033571;28;20380;-56
2021/12/25 07:07:21;;;;;;;;;;;;;;;11.35;88.55;98823.22;5033019;28;19927;-55
2021/12/25 07:09:48;;;;;;;;;;;;;;;11.35;88.25;98823.22;5032896;28;20051;-56
2021/12/25 07:12:15;;;;;;;;;;;;;;;11.32;88.23;98821.91;5032778;28;19971;-55
2021/12/25 07:14:43;;;;;;;;;;;;;;;11.31;88.21;98822.22;5032407;28;20012;-54
2021/12/25 07:17:09;;;;;;;;;;;;;;;11.30;88.39;98827.00;5032912;28;19984;-54
2021/12/25 07:19:36;;;;;;;;;;;;;;;11.34;88.67;98821.56;5043762;28;20315;-54
2021/12/25 07:22:04;;;;;;;;;;;;;;;11.35;88.29;98826.00;5051867;28;19925;-55
2021/12/25 07:24:31;;;;;;;;;;;;;;;11.35;88.31;98817.63;5052468;28;20365;-55
2021/12/25 07:26:58;;;;;;;;;;;;;;;11.35;88.09;98820.41;5052336;28;20000;-55
2021/12/25 07:29:25;;;;;;;;;;;;;;;11.35;88.36;98817.63;5035799;28;20008;-55
2021/12/25 07:31:51;;;;;;;;;;;;;;;11.36;88.17;98819.28;5031183;28;19948;-56
2021/12/25 07:34:18;;;;;;;;;;;;;;;11.36;87.87;98814.53;5032710;28;20084;-54
2021/12/25 07:36:45;;;;;;;;;;;;;;;11.37;87.88;98823.72;5032480;28;20007;-56
2021/12/25 07:39:12;;;;;;;;;;;;;;;11.39;87.95;98815.84;5037231;28;20012;-55
2021/12/25 07:41:41;;;;;;;;;;;;;;;11.40;87.76;98825.88;5052329;28;19928;-54
2021/12/25 07:44:11;;;;;;;;;;;;;;;11.43;87.87;98828.00;5052706;28;19920;-56
2021/12/25 07:46:39;;;;;;;;;;;;;;;11.46;88.03;98838.53;5040051;28;19921;-56
2021/12/25 07:49:06;;;;;;;;;;;;;;;11.49;87.91;98845.44;5032625;28;19921;-54
2021/12/25 07:51:32;;;;;;;;;;;;;;;11.55;88.18;98850.53;5032582;28;20003;-56
2021/12/25 07:53:59;;;;;;;;;;;;;;;11.56;87.90;98857.78;5032340;28;19921;-55
2021/12/25 07:56:26;;;;;;;;;;;;;;;11.61;88.12;98856.78;5032697;28;19987;-54
2021/12/25 07:58:53;;;;;;;;;;;;;;;11.64;88.21;98864.50;5032690;28;19961;-55
2021/12/25 08:01:20;;;;;;;;;;;;;;;11.68;88.20;98865.50;5037497;28;20012;-55
2021/12/25 08:03:47;;;;;;;;;;;;;;;11.69;88.24;98860.72;5048129;28;19920;-54
2021/12/25 08:06:13;;;;;;;;;;;;;;;11.71;88.32;98864.03;5052047;28;19927;-53
2021/12/25 08:08:40;;;;;;;;;;;;;;;11.74;88.38;98866.16;5051976;28;20008;-55
2021/12/25 08:11:07;;;;;;;;;;;;;;;11.75;88.36;98876.19;5045260;28;19971;-55
2021/12/25 08:13:33;;;;;;;;;;;;;;;11.78;88.61;98881.94;5032468;28;19929;-55
2021/12/25 08:16:00;;;;;;;;;;;;;;;11.82;88.71;98884.91;5032036;28;20012;-55
2021/12/25 08:18:27;;;;;;;;;;;;;;;11.85;88.57;98889.88;5040485;28;19921;-55
2021/12/25 08:20:54;;;;;;;;;;;;;;;11.88;88.46;98880.81;5032270;28;20016;-55
2021/12/25 08:23:20;;;;;;;;;;;;;;;11.87;88.47;98879.19;5031862;28;20323;-54
2021/12/25 08:25:47;;;;;;;;;;;;;;;11.88;88.42;98886.41;5031760;28;19928;-55
2021/12/25 08:28:14;;;;;;;;;;;;;;;11.88;88.42;98897.59;5035986;28;20004;-55
2021/12/25 08:30:40;;;;;;;;;;;;;;;11.90;88.60;98897.25;5036565;28;19995;-55
2021/12/25 08:33:07;;;;;;;;;;;;;;;11.94;88.56;98906.66;5035841;28;19965;-55
2021/12/25 08:35:34;;;;;;;;;;;;;;;11.97;88.57;98906.81;5035788;28;19960;-55
2021/12/25 08:38:01;;;;;;;;;;;;;;;12.00;88.65;98896.94;5035862;28;19931;-55
2021/12/25 08:40:28;;;;;;;;;;;;;;;12.05;88.84;98914.38;5035638;28;19921;-55
2021/12/25 08:43:00;;;;;;;;;;;;;;;12.07;88.82;98912.09;5036032;28;19963;-56
2021/12/25 08:45:40;;;;;;;;;;;;;;;12.08;88.83;98913.72;5035302;28;20031;-56
2021/12/25 08:48:26;;;;;;;;;;;;;;;12.11;88.72;98922.63;5047146;28;19921;-56
2021/12/25 08:50:55;;;;;;;;;;;;;;;12.11;88.70;98928.22;5043054;28;19921;-55
2021/12/25 08:53:23;;;;;;;;;;;;;;;12.09;88.71;98925.72;5035898;28;20367;-54
2021/12/25 08:55:50;;;;;;;;;;;;;;;12.08;88.67;98915.69;5035433;28;20024;-54
2021/12/25 08:58:17;;;;;;;;;;;;;;;12.08;88.63;98919.31;5051756;28;20323;-55
2021/12/25 09:00:47;;;;;;;;;;;;;;;12.12;88.73;98913.06;5055765;28;19968;-55
2021/12/25 09:03:14;;;;;;;;;;;;;;;12.14;88.76;98916.38;5055651;28;20147;-53
2021/12/25 09:05:40;;;;;;;;;;;;;;;12.17;88.73;98915.66;5046485;28;19920;-55
2021/12/25 09:08:07;;;;;;;;;;;;;;;12.19;88.84;98916.19;5045631;28;20015;-55
2021/12/25 09:10:35;;;;;;;;;;;;;;;12.21;88.74;98936.28;5035174;28;20015;-55
2021/12/25 09:13:02;;;;;;;;;;;;;;;12.26;88.86;98941.69;5035596;28;20465;-54
2021/12/25 09:15:29;;;;;;;;;;;;;;;12.38;89.27;98966.22;5035081;28;20019;-54
2021/12/25 09:17:56;;;;;;;;;;;;;;;12.73;90.10;98972.56;5035222;28;19992;-53
2021/12/25 09:20:23;;;;;;;;;;;;;;;13.96;92.79;98980.88;5035057;28;19927;-55
2021/12/25 09:22:50;;;;;;;;;;;;;;;15.24;93.44;98983.94;5053705;28;19920;-54
2021/12/25 09:25:16;;;;;;;;;;;;;;;16.24;92.49;98984.34;5054742;28;19921;-53
2021/12/25 09:27:43;;;;;;;;;;;;;;;16.68;91.74;98977.94;5037064;28;20037;-53
2021/12/25 09:30:10;;;;;;;;;;;;;;;17.69;92.34;98980.22;5034895;28;20079;-54
2021/12/25 09:32:37;;;;;;;;;;;;;;;18.23;90.81;98979.47;5034788;28;20019;-53
2021/12/25 09:35:04;;;;;;;;;;;;;;;18.30;90.36;98983.66;5036191;28;20055;-54
2021/12/25 09:37:31;;;;;;;;;;;;;;;18.56;90.12;98991.44;5086744;28;19921;-51
2021/12/25 09:39:58;;;;;;;;;;;;;;;19.29;90.11;98995.31;5067058;28;19982;-55
2021/12/25 09:42:25;;;;;;;;;;;;;;;20.37;89.76;98992.97;5034857;28;20020;-54
2021/12/25 09:44:52;;;;;;;;;;;;;;;21.52;88.40;98995.97;5034842;28;20015;-55
2021/12/25 09:47:20;;;;;;;;;;;;;;;22.25;86.38;99006.66;5035017;28;19921;-54
2021/12/25 09:49:47;;;;;;;;;;;;;;;22.88;85.62;98999.66;5035167;28;20007;-54
2021/12/25 09:52:13;;;;;;;;;;;;;;;23.45;83.68;99001.03;5034718;28;19920;-52
2021/12/25 09:54:40;;;;;;;;;;;;;;;23.54;82.37;99010.00;5035259;28;19964;-53
2021/12/25 09:57:07;;;;;;;;;;;;;;;23.23;81.98;99023.78;5034918;28;20010;-52
2021/12/25 09:59:35;;;;;;;;;;;;;;;23.38;82.66;99031.16;5034719;28;20090;-54
2021/12/25 10:02:02;;;;;;;;;;;;;;;23.47;82.66;99039.31;5034702;28;20012;-52
2021/12/25 10:04:33;;;;;;;;;;;;;;;23.52;82.44;99033.22;5034620;28;20291;-53
2021/12/25 10:07:19;;;;;;;;;;;;;;;23.72;81.73;99033.66;5034438;28;19931;-52
2021/12/25 10:10:01;;;;;;;;;;;;;;;23.68;81.79;99027.16;5041212;28;20015;-53
2021/12/25 10:12:35;;;;;;;;;;;;;;;23.42;82.13;99037.69;5048746;28;20015;-54
2021/12/25 10:15:03;;;;;;;;;;;;;;;23.27;82.24;99036.00;5034481;28;20016;-53
2021/12/25 10:17:31;;;;;;;;;;;;;;;22.95;82.01;99047.31;5033781;28;19963;-54
2021/12/25 10:20:24;;;;;;;;;;;;;;;22.58;82.80;99045.47;5034032;28;20011;-54
2021/12/25 10:22:55;;;;;;;;;;;;;;;22.38;83.79;99046.97;5034604;28;20341;-52
2021/12/25 10:25:22;;;;;;;;;;;;;;;22.79;84.42;99038.25;5033761;28;20083;-54
2021/12/25 10:27:50;;;;;;;;;;;;;;;23.55;83.95;99043.78;5033793;28;19937;-53
2021/12/25 10:30:17;;;;;;;;;;;;;;;24.07;82.60;99054.84;5033836;28;19967;-54
2021/12/25 10:32:44;;;;;;;;;;;;;;;24.39;81.80;99057.66;5033581;28;20004;-54
2021/12/25 10:35:25;;;;;;;;;;;;;;;24.40;82.11;99067.88;5034058;28;20051;-54
2021/12/25 10:37:52;;;;;;;;;;;;;;;24.87;81.78;99088.56;5036503;28;20348;-55
2021/12/25 10:40:24;;;;;;;;;;;;;;;25.09;81.32;99086.41;5052411;28;20023;-55
2021/12/25 10:42:53;;;;;;;;;;;;;;;25.04;81.23;99092.56;5053729;28;20378;-53
2021/12/25 10:45:20;;;;;;;;;;;;;;;24.73;80.72;99097.97;5033877;28;20020;-54
2021/12/25 10:47:58;;;;;;;;;;;;;;;24.31;81.36;99088.25;5034234;28;20440;-52
2021/12/25 10:50:25;;;;;;;;;;;;;;;23.96;82.12;99091.09;5033132;28;20357;-54
2021/12/25 10:52:52;;;;;;;;;;;;;;;23.69;82.92;99096.34;5033831;28;19928;-54
2021/12/25 10:55:22;;;;;;;;;;;;;;;23.53;83.32;99108.13;5033760;28;20023;-54
2021/12/25 10:57:52;;;;;;;;;;;;;;;23.15;83.08;99107.59;5033356;28;20012;-54
2021/12/25 11:00:22;;;;;;;;;;;;;;;22.91;83.69;99106.22;5048732;28;19964;-52
2021/12/25 11:02:50;;;;;;;;;;;;;;;24.03;85.06;99117.56;5033891;28;19921;-53
2021/12/25 11:05:17;;;;;;;;;;;;;;;25.18;82.37;99101.09;5033279;28;20368;-51
2021/12/25 11:07:45;;;;;;;;;;;;;;;25.18;80.97;99106.00;5033347;28;19921;-55
2021/12/25 11:10:13;;;;;;;;;;;;;;;24.54;81.38;99109.84;5033163;28;19960;-55
2021/12/25 11:12:41;;;;;;;;;;;;;;;23.65;81.61;99107.72;5033231;28;19921;-54
2021/12/25 11:15:09;;;;;;;;;;;;;;;22.65;81.72;99107.28;5033046;28;19964;-53
2021/12/25 11:17:38;;;;;;;;;;;;;;;21.78;82.75;99102.13;5052447;28;19921;-53
2021/12/25 11:20:06;;;;;;;;;;;;;;;21.15;83.94;99109.53;5049249;28;20051;-62
2021/12/25 11:22:46;;;;;;;;;;;;;;;20.66;84.71;99118.22;5033453;28;19921;-57
2021/12/25 11:25:14;;;;;;;;;;;;;;;20.21;85.37;99117.09;5033193;28;20017;-56
2021/12/25 11:27:41;;;;;;;;;;;;;;;19.87;86.05;99108.44;5033099;28;20024;-54
2021/12/25 11:30:08;;;;;;;;;;;;;;;19.58;86.64;99115.56;5033310;28;19948;-54
2021/12/25 11:32:35;;;;;;;;;;;;;;;19.41;87.26;99114.03;5033118;28;19999;-56
2021/12/25 11:35:02;;;;;;;;;;;;;;;19.31;87.88;99129.59;5049650;28;19921;-51
2021/12/25 11:37:29;;;;;;;;;;;;;;;19.25;88.08;99138.75;5051129;28;20020;-55
2021/12/25 11:39:57;;;;;;;;;;;;;;;19.24;88.45;99149.25;5032762;28;20027;-54
2021/12/25 11:42:26;;;;;;;;;;;;;;;19.21;88.24;99157.69;5032819;28;19964;-53
2021/12/25 11:44:54;;;;;;;;;;;;;;;19.03;88.40;99152.47;5032786;28;19920;-53
2021/12/25 11:47:30;;;;;;;;;;;;;;;18.93;88.41;99153.06;5032699;28;19931;-55
2021/12/25 11:49:58;;;;;;;;;;;;;;;18.93;88.99;99153.88;5032640;28;20019;-55
2021/12/25 11:52:30;;;;;;;;;;;;;;;19.13;89.32;99160.38;5032503;28;19961;-56
2021/12/25 11:55:23;;;;;;;;;;;;;;;19.59;90.08;99169.00;5033064;28;20008;-54
2021/12/25 12:00:37;;;;;;;;;;;;;;;23.60;86.45;99165.13;5031972;28;19928;-54
2021/12/25 12:03:05;;;;;;;;;;;;;;;23.31;84.52;99165.00;5032479;28;19921;-54
2021/12/25 12:05:33;;;;;;;;;;;;;;;22.90;84.87;99170.03;5032322;28;20016;-53
2021/12/25 12:08:10;;;;;;;;;;;;;;;22.50;85.74;99182.41;5032819;28;19921;-54
2021/12/25 12:11:00;;;;;;;;;;;;;;;22.07;86.29;99179.13;5032742;28;19921;-55
2021/12/25 12:13:31;;;;;;;;;;;;;;;21.56;86.38;99182.66;5032769;28;20450;-55
2021/12/25 12:16:02;;;;;;;;;;;;;;;21.16;86.70;99178.47;5031127;28;19943;-54
2021/12/25 12:18:36;;;;;;;;;;;;;;;20.85;87.14;99182.50;5032696;28;19921;-54
2021/12/25 12:21:15;;;;;;;;;;;;;;;20.61;87.62;99172.41;5037970;28;20019;-54
2021/12/25 12:26:38;;;;;;;;;;;;;;;20.64;88.63;99180.16;5032160;28;19932;-53
2021/12/25 12:29:04;;;;;;;;;;;;;;;21.15;89.83;99174.00;5032710;28;20023;-54
2021/12/25 12:31:43;;;;;;;;;;;;;;;23.28;88.74;99191.47;5032262;28;20009;-54
2021/12/25 12:34:28;;;;;;;;;;;;;;;26.24;84.03;99184.66;5040662;28;19938;-55
2021/12/25 12:37:14;;;;;;;;;;;;;;;28.30;78.11;99185.59;5051580;28;20019;-56
2021/12/25 12:39:40;;;;;;;;;;;;;;;29.14;76.53;99169.44;5052088;28;20034;-56
2021/12/25 12:42:13;;;;;;;;;;;;;;;28.99;76.93;99173.78;5036395;28;19928;-56
2021/12/25 12:45:26;;;;;;;;;;;;;;;29.07;77.94;99181.06;5032177;28;19921;-55
2021/12/25 12:48:12;;;;;;;;;;;;;;;29.22;75.60;99184.47;5031571;28;19920;-54
2021/12/25 12:50:40;;;;;;;;;;;;;;;28.71;75.03;99186.63;5032206;28;19931;-56
2021/12/25 12:53:09;;;;;;;;;;;;;;;27.71;75.81;99182.38;5031894;28;20518;-55
2021/12/25 12:55:37;;;;;;;;;;;;;;;26.49;77.62;99182.84;5032013;28;19920;-55
2021/12/25 12:58:12;;;;;;;;;;;;;;;25.53;78.67;99185.03;5032486;28;20008;-57
2021/12/25 13:00:40;;;;;;;;;;;;;;;24.89;80.43;99180.34;5031809;28;19921;-53
2021/12/25 13:03:07;;;;;;;;;;;;;;;24.69;81.05;99176.28;5032828;28;19920;-54
2021/12/25 13:05:37;;;;;;;;;;;;;;;25.07;81.93;99177.44;5032050;28;19947;-56
2021/12/25 13:08:09;;;;;;;;;;;;;;;26.67;80.28;99178.63;5032351;28;20013;-56
2021/12/25 13:10:45;;;;;;;;;;;;;;;28.85;76.58;99192.09;5045392;28;19920;-56
2021/12/25 13:13:12;;;;;;;;;;;;;;;30.55;72.44;99191.00;5034236;28;20381;-55
2021/12/25 13:15:41;;;;;;;;;;;;;;;31.11;71.53;99193.66;5035834;28;20371;-55
2021/12/25 13:18:08;;;;;;;;;;;;;;;31.09;72.14;99199.09;5035756;28;19924;-56
2021/12/25 13:20:45;;;;;;;;;;;;;;;31.36;72.86;99199.59;5036275;28;19920;-57
2021/12/25 13:23:15;;;;;;;;;;;;;;;31.83;72.28;99201.09;5035170;28;19921;-57
2021/12/25 13:25:47;;;;;;;;;;;;;;;31.67;70.83;99210.66;5037619;28;20015;-57
2021/12/25 13:28:14;;;;;;;;;;;;;;;29.90;70.95;99211.84;5055099;28;19995;-57
2021/12/25 13:30:44;;;;;;;;;;;;;;;28.06;72.73;99221.25;5053772;28;20015;-57
2021/12/25 13:33:12;;;;;;;;;;;;;;;26.76;76.23;99221.06;5055414;28;20290;-56
2021/12/25 13:35:39;;;;;;;;;;;;;;;25.62;77.51;99225.44;5053441;28;20004;-55
2021/12/25 13:38:07;;;;;;;;;;;;;;;24.47;77.96;99226.84;5034988;28;20334;-57
2021/12/25 13:40:36;;;;;;;;;;;;;;;23.34;78.01;99235.41;5041248;28;19964;-56
2021/12/25 13:43:09;;;;;;;;;;;;;;;22.30;78.88;99233.81;5035266;28;19928;-56
2021/12/25 13:45:37;;;;;;;;;;;;;;;21.53;80.15;99229.69;5034662;28;19998;-55
2021/12/25 13:48:05;;;;;;;;;;;;;;;20.91;80.41;99230.03;5034750;28;19932;-55
2021/12/25 13:50:32;;;;;;;;;;;;;;;20.42;81.31;99238.53;5034763;28;19927;-55
2021/12/25 13:52:59;;;;;;;;;;;;;;;20.06;82.16;99227.34;5045218;28;20007;-55
2021/12/25 13:55:33;;;;;;;;;;;;;;;19.76;82.54;99224.38;5054607;28;20455;-56
2021/12/25 13:58:05;;;;;;;;;;;;;;;19.45;82.48;99236.63;5086751;28;20091;-57
2021/12/25 14:00:31;;;;;;;;;;;;;;;19.17;83.15;99220.69;5046221;28;20007;-57
2021/12/25 14:03:01;;;;;;;;;;;;;;;18.97;82.90;99221.84;5034430;28;19921;-58
2021/12/25 14:05:29;;;;;;;;;;;;;;;18.72;83.17;99226.13;5034441;28;20017;-55
2021/12/25 14:07:56;;;;;;;;;;;;;;;18.63;82.93;99235.59;5034494;28;20015;-56
2021/12/25 14:10:27;;;;;;;;;;;;;;;18.45;83.81;99246.44;5034918;28;19960;-55
2021/12/25 14:12:58;;;;;;;;;;;;;;;18.40;84.44;99248.75;5034582;28;20321;-55
2021/12/25 14:15:26;;;;;;;;;;;;;;;18.30;84.33;99252.91;5034141;28;20274;-56
2021/12/25 14:17:54;;;;;;;;;;;;;;;18.04;83.36;99261.91;5034239;28;19967;-55